This is the latest recevied weather packets stored in our database for station/object KB2AHZ. If no packets are shown the sender has not sent any weather packets the latest 10 day(s).
| Time | Temp. | Humidity | Pressure | Rain* | Wind** | Luminosity | Snow |
|---|---|---|---|---|---|---|---|
| 1777954171 | 19.44° C | 54% | 1014.7 hPa | 0 mm | - | 0 W/m² | - |
| 1777953869 | 19.44° C | 53% | 1014.7 hPa | 0 mm | - | 0 W/m² | - |
| 1777953565 | 19.44° C | 53% | 1014.5 hPa | 0 mm | - | 0 W/m² | - |
| 1777953261 | 19.44° C | 52% | 1014.5 hPa | 0 mm | - | 0 W/m² | - |
| 1777952959 | 19.44° C | 52% | 1014.5 hPa | 0 mm | - | 0 W/m² | - |
| 1777952655 | 19.44° C | 52% | 1014.6 hPa | 0 mm | - | 0 W/m² | - |
| 1777952352 | 19.44° C | 51% | 1014.3 hPa | 0 mm | - | 0 W/m² | - |
| 1777952049 | 19.44° C | 51% | 1014.3 hPa | 0 mm | - | 0 W/m² | - |
| 1777951747 | 19.44° C | 51% | 1014.3 hPa | 0 mm | - | 0 W/m² | - |
| 1777951444 | 19.44° C | 51% | 1014.1 hPa | 0 mm | - | 0 W/m² | - |
| 1777951141 | 19.44° C | 51% | 1014.2 hPa | 0 mm | - | 0 W/m² | - |
| 1777950837 | 19.44° C | 51% | 1014.6 hPa | 0 mm | - | 0 W/m² | - |
| 1777950534 | 18.89° C | 53% | 1014.1 hPa | 0 mm | - | 0 W/m² | - |
| 1777950230 | 19.44° C | 52% | 1014.2 hPa | 0 mm | - | 0 W/m² | - |
| 1777949926 | 19.44° C | 52% | 1014.1 hPa | 0 mm | - | 0 W/m² | - |
| 1777949624 | 19.44° C | 52% | 1014 hPa | 0 mm | - | 0 W/m² | - |
| 1777949322 | 19.44° C | 52% | 1014.5 hPa | 0 mm | - | 0 W/m² | - |
| 1777949020 | 19.44° C | 52% | 1014.5 hPa | 0 mm | - | 0 W/m² | - |
| 1777948716 | 18.33° C | 55% | 1014.5 hPa | 0 mm | - | 0 W/m² | - |
| 1777948413 | 18.33° C | 59% | 1014.2 hPa | 0 mm | - | 0 W/m² | - |
| 1777948111 | 17.78° C | 64% | 1014.1 hPa | 0 mm | - | 0 W/m² | - |
| 1777947807 | 17.22° C | 66% | 1014.2 hPa | 0 mm | - | 0 W/m² | - |
| 1777947505 | 17.22° C | 67% | 1013.9 hPa | 0 mm | - | 0 W/m² | - |
| 1777947201 | 17.22° C | 65% | 1014.1 hPa | 0 mm | - | 0 W/m² | - |
| 1777946897 | 17.78° C | 64% | 1014.3 hPa | 0 mm | - | 0 W/m² | - |
* Rain latest hour (hover to see other rain measurements)
** Current wind speed in m/s (hover to see current wind gust speed)